createdAt,value
2023-02-24T00:00:26.550Z,101179.09
2023-02-24T00:02:58.485Z,101193.25
2023-02-24T00:06:10.868Z,101186.28
2023-02-24T00:08:54.098Z,101179.38
2023-02-24T00:11:31.094Z,101180.13
2023-02-24T00:14:12.942Z,101171.34
2023-02-24T00:17:19.185Z,101181.13
2023-02-24T00:19:57.813Z,101174.13
2023-02-24T00:22:24.836Z,101175.84
2023-02-24T00:25:07.882Z,101174.22
2023-02-24T00:27:43.501Z,101168.91
2023-02-24T00:30:14.909Z,101164.34
2023-02-24T00:32:41.914Z,101161.56
2023-02-24T00:35:12.530Z,101161.53
2023-02-24T00:37:51.575Z,101155.09
2023-02-24T00:40:23.842Z,101154.00
2023-02-24T00:42:57.532Z,101153.06
2023-02-24T00:48:35.855Z,101155.63
2023-02-24T00:53:56.250Z,101155.03
2023-02-24T00:56:35.451Z,101149.09
2023-02-24T00:59:09.957Z,101150.59
2023-02-24T01:01:56.027Z,101145.25
2023-02-24T01:04:51.092Z,101139.56
2023-02-24T01:07:19.884Z,101136.31
2023-02-24T01:09:56.281Z,101125.00
2023-02-24T01:12:55.813Z,101121.50
2023-02-24T01:15:36.901Z,101112.84
2023-02-24T01:18:27.721Z,101113.72
2023-02-24T01:21:19.740Z,101123.50
2023-02-24T01:24:00.232Z,101120.91
2023-02-24T01:26:38.114Z,101118.41
2023-02-24T01:29:09.934Z,101123.72
2023-02-24T01:31:38.848Z,101119.38
2023-02-24T01:34:06.195Z,101124.66
2023-02-24T01:36:48.199Z,101116.78
2023-02-24T01:39:15.011Z,101113.31
2023-02-24T01:41:47.216Z,101117.72
2023-02-24T01:44:20.000Z,101121.25
2023-02-24T01:47:33.239Z,101121.19
2023-02-24T01:50:22.953Z,101122.16
2023-02-24T01:52:59.352Z,101115.22
2023-02-24T01:55:41.138Z,101113.44
2023-02-24T01:58:29.903Z,101108.19
2023-02-24T02:00:58.073Z,101109.06
2023-02-24T02:03:36.452Z,101112.50
2023-02-24T02:06:17.562Z,101116.81
2023-02-24T02:08:51.158Z,101114.13
2023-02-24T02:11:27.629Z,101109.81
2023-02-24T02:14:09.117Z,101111.59
2023-02-24T02:16:43.093Z,101104.53
2023-02-24T02:19:41.067Z,101095.75
2023-02-24T02:22:42.171Z,101106.28
2023-02-24T02:25:26.879Z,101098.75
2023-02-24T02:28:17.670Z,101095.50
2023-02-24T02:31:18.034Z,101096.50
2023-02-24T02:34:19.518Z,101100.75
2023-02-24T02:37:22.977Z,101105.88
2023-02-24T02:40:20.041Z,101105.16
2023-02-24T02:43:09.019Z,101111.19
2023-02-24T02:45:58.173Z,101104.75
2023-02-24T02:48:58.566Z,101103.53
2023-02-24T02:51:52.274Z,101106.03
2023-02-24T02:54:52.230Z,101108.81
2023-02-24T02:57:31.669Z,101101.63
2023-02-24T03:00:38.714Z,101109.72
2023-02-24T03:03:44.181Z,101112.13
2023-02-24T03:06:42.531Z,101113.22
2023-02-24T03:09:27.677Z,101112.56
2023-02-24T03:12:11.643Z,101108.22
2023-02-24T03:14:57.685Z,101099.59
2023-02-24T03:17:33.198Z,101096.88
2023-02-24T03:20:33.744Z,101098.78
2023-02-24T03:26:21.860Z,101100.19
2023-02-24T03:29:10.295Z,101092.97
2023-02-24T03:32:15.322Z,101100.09
2023-02-24T03:35:12.600Z,101094.03
2023-02-24T03:37:50.999Z,101097.44
2023-02-24T03:40:28.901Z,101083.34
2023-02-24T03:43:23.618Z,101083.41
2023-02-24T03:45:50.832Z,101091.84
2023-02-24T03:48:36.093Z,101086.50
2023-02-24T03:51:06.166Z,101081.75
2023-02-24T03:53:34.066Z,101086.25
2023-02-24T03:56:47.767Z,101091.00
2023-02-24T03:59:55.039Z,101096.06
2023-02-24T04:02:40.492Z,101085.84
2023-02-24T04:05:33.882Z,101091.25
2023-02-24T04:08:27.576Z,101093.00
2023-02-24T04:11:39.772Z,101091.25
2023-02-24T04:14:28.358Z,101090.50
2023-02-24T04:17:34.791Z,101080.84
2023-02-24T04:20:18.432Z,101082.63
2023-02-24T04:22:57.216Z,101079.13
2023-02-24T04:25:37.370Z,101090.44
2023-02-24T04:28:19.860Z,101089.28
2023-02-24T04:31:10.643Z,101086.94
2023-02-24T04:33:42.295Z,101084.50
2023-02-24T04:36:42.991Z,101091.00
2023-02-24T04:39:15.531Z,101083.81
2023-02-24T04:41:51.652Z,101086.06
2023-02-24T04:44:29.421Z,101081.16
2023-02-24T04:47:14.067Z,101077.59
2023-02-24T04:49:51.492Z,101086.00
2023-02-24T04:52:25.915Z,101083.78
2023-02-24T04:54:53.326Z,101081.56
2023-02-24T04:57:32.994Z,101084.59
2023-02-24T05:00:02.989Z,101076.91
2023-02-24T05:02:33.366Z,101071.66
2023-02-24T05:05:10.264Z,101072.63
2023-02-24T05:07:39.844Z,101062.94
2023-02-24T05:10:20.605Z,101065.56
2023-02-24T05:13:01.418Z,101062.13
2023-02-24T05:15:48.907Z,101052.53
2023-02-24T05:21:27.005Z,101046.34
2023-02-24T05:24:11.948Z,101040.63
2023-02-24T05:26:42.947Z,101039.47
2023-02-24T05:29:22.292Z,101040.81
2023-02-24T05:32:00.162Z,101041.06
2023-02-24T05:34:35.019Z,101047.84
2023-02-24T05:37:11.786Z,101042.44
2023-02-24T05:39:38.897Z,101026.25
2023-02-24T05:42:07.266Z,101034.50
2023-02-24T05:44:43.372Z,101032.00
2023-02-24T05:47:54.533Z,101036.25
2023-02-24T05:50:35.581Z,101035.44
2023-02-24T05:53:11.840Z,101023.47
2023-02-24T05:55:52.217Z,101027.34
2023-02-24T05:58:26.625Z,101024.09
2023-02-24T06:00:53.410Z,101025.44
2023-02-24T06:03:31.131Z,101027.69
2023-02-24T06:06:09.204Z,101033.97
2023-02-24T06:08:57.911Z,101030.69
2023-02-24T06:11:32.183Z,101032.00
2023-02-24T06:14:01.302Z,101039.81
2023-02-24T06:16:39.179Z,101036.16
2023-02-24T06:19:24.080Z,101034.88
2023-02-24T06:21:54.199Z,101037.81
2023-02-24T06:24:22.271Z,101039.78
2023-02-24T06:26:50.828Z,101033.72
2023-02-24T06:29:41.344Z,101035.56
2023-02-24T06:32:13.302Z,101044.38
2023-02-24T06:34:41.111Z,101042.47
2023-02-24T06:37:17.663Z,101040.31
2023-02-24T06:40:04.589Z,101041.19
2023-02-24T06:42:31.797Z,101051.00
2023-02-24T06:47:43.253Z,101053.19
2023-02-24T06:50:27.128Z,101047.75
2023-02-24T06:53:03.702Z,101042.69
2023-02-24T06:55:48.388Z,101040.75
2023-02-24T06:58:28.660Z,101046.03
2023-02-24T07:01:12.367Z,101031.63
2023-02-24T07:04:11.368Z,101035.94
2023-02-24T07:06:50.662Z,101040.19
2023-02-24T07:09:20.649Z,101030.88
2023-02-24T07:12:01.602Z,101030.53
2023-02-24T07:14:37.552Z,101034.19
2023-02-24T07:17:09.051Z,101039.53
2023-02-24T07:19:45.742Z,101031.19
2023-02-24T07:22:31.264Z,101021.47
2023-02-24T07:25:39.651Z,101029.06
2023-02-24T07:28:26.232Z,101042.19
2023-02-24T07:31:04.355Z,101025.28
2023-02-24T07:33:34.638Z,101017.16
2023-02-24T07:36:15.084Z,101015.13
2023-02-24T07:38:47.849Z,101024.22
2023-02-24T07:41:22.647Z,101024.66
2023-02-24T07:44:02.230Z,101025.97
2023-02-24T07:46:45.056Z,101017.78
2023-02-24T07:49:28.096Z,101011.97
2023-02-24T07:52:00.609Z,101006.94
2023-02-24T07:54:30.496Z,100999.81
2023-02-24T07:57:06.947Z,101004.59
2023-02-24T08:00:48.321Z,101006.72
2023-02-24T08:03:14.432Z,101010.84
2023-02-24T08:05:43.865Z,101007.72
2023-02-24T08:08:31.624Z,100998.91
2023-02-24T08:11:43.645Z,100999.13
2023-02-24T08:14:14.486Z,100996.16
2023-02-24T08:16:49.405Z,101004.44
2023-02-24T08:19:25.490Z,101011.41
2023-02-24T08:21:53.636Z,100996.69
2023-02-24T08:24:33.310Z,100994.91
2023-02-24T08:27:22.215Z,101005.09
2023-02-24T08:30:00.281Z,101000.72
2023-02-24T08:32:59.755Z,100995.44
2023-02-24T08:35:45.306Z,100993.97
2023-02-24T08:38:42.441Z,100988.97
2023-02-24T08:41:56.591Z,100982.97
2023-02-24T08:44:39.213Z,100987.78
2023-02-24T08:47:15.658Z,100993.22
2023-02-24T08:49:42.733Z,100998.53
2023-02-24T08:52:10.678Z,100997.38
2023-02-24T08:54:56.886Z,100995.44
2023-02-24T08:57:30.734Z,100991.41
2023-02-24T09:00:07.302Z,100996.66
2023-02-24T09:02:54.988Z,101000.66
2023-02-24T09:05:26.153Z,101001.66
2023-02-24T09:08:05.347Z,100998.16
2023-02-24T09:10:43.600Z,100989.16
2023-02-24T09:13:12.697Z,100994.56
2023-02-24T09:15:41.995Z,100993.50
2023-02-24T09:18:09.868Z,100989.28
2023-02-24T09:21:20.541Z,100991.94
2023-02-24T09:23:52.868Z,100986.19
2023-02-24T09:26:23.850Z,100982.06
2023-02-24T09:28:56.592Z,100978.56
2023-02-24T09:31:41.082Z,100990.25
2023-02-24T09:34:19.500Z,100989.94
2023-02-24T09:37:12.692Z,100988.09
2023-02-24T09:39:58.984Z,100985.63
2023-02-24T09:45:38.186Z,100984.75
2023-02-24T09:48:59.635Z,100977.50
2023-02-24T09:51:30.618Z,100977.97
2023-02-24T09:54:13.709Z,100977.88
2023-02-24T09:57:08.502Z,100969.84
2023-02-24T10:00:04.294Z,100968.53
2023-02-24T10:03:04.015Z,100973.09
2023-02-24T10:05:49.450Z,100964.97
2023-02-24T10:08:29.246Z,100962.38
2023-02-24T10:11:07.300Z,100966.69
2023-02-24T10:13:51.937Z,100963.00
2023-02-24T10:16:44.976Z,100960.09
2023-02-24T10:19:34.367Z,100963.19
2023-02-24T10:22:23.243Z,100962.28
2023-02-24T10:25:01.619Z,100959.13
2023-02-24T10:27:56.178Z,100956.38
2023-02-24T10:31:25.588Z,100949.50
2023-02-24T10:34:45.673Z,100946.91
2023-02-24T10:37:30.968Z,100939.31
2023-02-24T10:40:38.813Z,100933.59
2023-02-24T10:43:51.560Z,100922.91
2023-02-24T10:46:45.001Z,100932.34
2023-02-24T10:49:20.456Z,100927.97
2023-02-24T10:52:19.281Z,100925.00
2023-02-24T10:55:08.770Z,100916.81
2023-02-24T10:57:59.145Z,100917.44
2023-02-24T11:00:53.991Z,100911.19
2023-02-24T11:03:46.347Z,100922.94
2023-02-24T11:06:42.528Z,100911.13
2023-02-24T11:09:40.216Z,100913.47
2023-02-24T11:12:47.297Z,100901.72
2023-02-24T11:15:50.995Z,100893.09
2023-02-24T11:18:31.452Z,100900.09
2023-02-24T11:21:06.579Z,100894.47
2023-02-24T11:23:59.936Z,100896.81
2023-02-24T11:26:48.836Z,100887.88
2023-02-24T11:29:25.679Z,100883.56
2023-02-24T11:32:23.715Z,100882.03
2023-02-24T11:35:06.784Z,100874.44
2023-02-24T11:37:43.348Z,100869.75
2023-02-24T11:40:32.205Z,100854.13
2023-02-24T11:43:04.604Z,100854.13
2023-02-24T11:45:55.216Z,100856.09
2023-02-24T11:48:32.937Z,100850.41
2023-02-24T11:51:27.672Z,100841.84
2023-02-24T11:54:10.776Z,100840.16
2023-02-24T11:57:06.745Z,100838.66
2023-02-24T11:59:49.963Z,100833.69
2023-02-24T12:02:43.887Z,100833.81
2023-02-24T12:05:28.612Z,100822.66
2023-02-24T12:08:11.039Z,100814.53
2023-02-24T12:10:47.726Z,100799.09
2023-02-24T12:14:03.653Z,100795.13
2023-02-24T12:16:53.809Z,100805.97
2023-02-24T12:19:52.150Z,100782.97
2023-02-24T12:22:35.812Z,100776.03
2023-02-24T12:25:13.348Z,100770.50
2023-02-24T12:28:11.437Z,100766.75
2023-02-24T12:31:00.852Z,100765.56
2023-02-24T12:34:00.382Z,100753.63
2023-02-24T12:37:11.291Z,100754.97
2023-02-24T12:39:58.984Z,100752.66
2023-02-24T12:42:36.019Z,100750.34
2023-02-24T12:45:26.538Z,100739.28
2023-02-24T12:48:09.476Z,100729.81
2023-02-24T12:51:08.410Z,100725.97
2023-02-24T12:54:22.149Z,100711.69
2023-02-24T12:56:59.054Z,100710.88
2023-02-24T12:59:33.144Z,100706.53
2023-02-24T13:02:31.905Z,100709.09
2023-02-24T13:08:39.392Z,100693.81
2023-02-24T13:11:46.846Z,100694.66
2023-02-24T13:14:42.093Z,100698.13
2023-02-24T13:17:11.901Z,100695.91
2023-02-24T13:19:58.486Z,100694.34
2023-02-24T13:22:33.908Z,100686.41
2023-02-24T13:25:30.198Z,100672.06
2023-02-24T13:28:02.666Z,100674.34
2023-02-24T13:30:56.534Z,100680.44
2023-02-24T13:33:56.106Z,100675.56
2023-02-24T13:36:55.596Z,100664.69
2023-02-24T13:39:55.100Z,100656.00
2023-02-24T13:42:39.711Z,100652.31
2023-02-24T13:45:16.279Z,100640.13
2023-02-24T13:48:14.646Z,100632.84
2023-02-24T13:51:12.084Z,100629.03
2023-02-24T13:54:15.460Z,100625.81
2023-02-24T13:57:25.279Z,100623.63
2023-02-24T14:00:18.457Z,100616.59
2023-02-24T14:05:52.718Z,100608.22
2023-02-24T14:08:40.633Z,100615.91
2023-02-24T14:11:12.974Z,100605.63
2023-02-24T14:13:50.703Z,100604.34
2023-02-24T14:16:33.579Z,100605.38
2023-02-24T14:19:06.778Z,100600.22
2023-02-24T14:21:37.476Z,100591.50
2023-02-24T14:24:18.217Z,100591.38
2023-02-24T14:27:02.927Z,100598.59
2023-02-24T14:29:47.581Z,100588.50
2023-02-24T14:32:27.697Z,100585.63
2023-02-24T14:35:02.044Z,100587.78
2023-02-24T14:37:36.206Z,100581.75
2023-02-24T14:40:18.182Z,100576.47
2023-02-24T14:42:54.687Z,100570.69
2023-02-24T14:45:40.002Z,100566.00
2023-02-24T14:48:07.832Z,100564.53
2023-02-24T14:50:40.843Z,100567.31
2023-02-24T14:53:16.771Z,100557.25
2023-02-24T14:55:52.705Z,100553.69
2023-02-24T14:59:11.298Z,100554.22
2023-02-24T15:01:42.269Z,100546.13
2023-02-24T15:04:47.468Z,100540.66
2023-02-24T15:07:38.120Z,100548.78
2023-02-24T15:10:22.166Z,100543.22
2023-02-24T15:13:01.038Z,100535.00
2023-02-24T15:15:50.402Z,100534.75
2023-02-24T15:18:29.607Z,100540.16
2023-02-24T15:21:07.746Z,100536.75
2023-02-24T15:26:32.585Z,100519.81
2023-02-24T15:29:08.133Z,100522.53
2023-02-24T15:34:33.225Z,100508.63
2023-02-24T15:37:26.048Z,100508.41
2023-02-24T15:40:29.653Z,100505.13
2023-02-24T15:43:14.155Z,100504.84
2023-02-24T15:45:41.649Z,100497.19
2023-02-24T15:48:31.083Z,100497.38
2023-02-24T15:51:08.813Z,100482.81
2023-02-24T15:53:40.642Z,100483.19
2023-02-24T15:56:13.906Z,100475.75
2023-02-24T15:58:45.361Z,100476.78
2023-02-24T16:01:29.954Z,100467.72
2023-02-24T16:04:18.243Z,100460.63
2023-02-24T16:06:55.341Z,100460.63
2023-02-24T16:09:40.504Z,100458.94
2023-02-24T16:12:22.015Z,100465.28
2023-02-24T16:14:57.838Z,100466.16
2023-02-24T16:21:01.133Z,100466.94
2023-02-24T16:23:28.001Z,100463.19
2023-02-24T16:26:20.971Z,100463.69
2023-02-24T16:28:57.712Z,100470.63
2023-02-24T16:31:28.920Z,100457.81
2023-02-24T16:33:58.649Z,100448.56
2023-02-24T16:36:29.142Z,100456.94
2023-02-24T16:39:01.922Z,100460.91
2023-02-24T16:41:53.408Z,100460.84
2023-02-24T16:44:24.790Z,100459.34
2023-02-24T16:47:17.860Z,100465.63
2023-02-24T16:49:45.130Z,100473.63
2023-02-24T16:52:13.335Z,100458.47
2023-02-24T16:54:40.100Z,100465.16
2023-02-24T16:57:28.727Z,100463.41
2023-02-24T17:02:59.096Z,100475.41
2023-02-24T17:05:37.757Z,100463.56
2023-02-24T17:08:08.606Z,100460.47
2023-02-24T17:10:56.579Z,100467.94
2023-02-24T17:13:32.439Z,100465.16
2023-02-24T17:16:04.765Z,100466.88
2023-02-24T17:18:31.586Z,100469.91
2023-02-24T17:21:20.686Z,100465.81
2023-02-24T17:23:53.529Z,100462.22
2023-02-24T17:26:21.880Z,100461.50
2023-02-24T17:28:58.660Z,100461.50
2023-02-24T17:31:33.738Z,100457.06
2023-02-24T17:34:06.469Z,100457.91
2023-02-24T17:36:38.281Z,100455.75
2023-02-24T17:39:08.826Z,100463.94
2023-02-24T17:41:45.228Z,100455.25
2023-02-24T17:44:21.283Z,100450.31
2023-02-24T17:46:52.669Z,100451.19
2023-02-24T17:49:58.473Z,100453.09
2023-02-24T17:52:25.677Z,100445.16
2023-02-24T17:54:55.020Z,100446.75
2023-02-24T17:57:23.677Z,100448.41
2023-02-24T18:00:07.608Z,100438.69
2023-02-24T18:02:42.081Z,100446.75
2023-02-24T18:05:23.834Z,100437.44
2023-02-24T18:08:00.138Z,100433.13
2023-02-24T18:10:30.676Z,100440.75
2023-02-24T18:13:09.018Z,100430.91
2023-02-24T18:15:57.743Z,100433.53
2023-02-24T18:18:34.234Z,100428.16
2023-02-24T18:21:09.687Z,100422.47
2023-02-24T18:23:57.258Z,100418.19
2023-02-24T18:26:59.650Z,100413.53
2023-02-24T18:32:27.677Z,100411.66
2023-02-24T18:35:02.289Z,100410.25
2023-02-24T18:40:36.807Z,100397.69
2023-02-24T18:43:16.746Z,100398.22
2023-02-24T18:45:43.963Z,100393.78
2023-02-24T18:48:13.654Z,100403.50
2023-02-24T18:50:46.750Z,100391.81
2023-02-24T18:53:16.688Z,100398.88
2023-02-24T18:55:44.702Z,100396.69
2023-02-24T18:58:43.533Z,100389.84
2023-02-24T19:01:25.566Z,100389.75
2023-02-24T19:04:05.129Z,100389.84
2023-02-24T19:06:40.737Z,100383.81
2023-02-24T19:09:19.796Z,100390.81
2023-02-24T19:11:54.233Z,100394.53
2023-02-24T19:14:21.128Z,100391.63
2023-02-24T19:16:48.998Z,100395.97
2023-02-24T19:19:29.750Z,100398.22
2023-02-24T19:22:04.762Z,100401.78
2023-02-24T19:24:52.169Z,100393.00
2023-02-24T19:27:32.606Z,100393.28
2023-02-24T19:30:08.961Z,100391.53
2023-02-24T19:32:44.049Z,100395.16
2023-02-24T19:35:15.824Z,100386.72
2023-02-24T19:37:53.729Z,100387.09
2023-02-24T19:40:34.805Z,100382.63
2023-02-24T19:43:12.696Z,100385.53
2023-02-24T19:45:50.993Z,100379.16
2023-02-24T19:48:23.931Z,100380.91
2023-02-24T19:51:05.703Z,100378.53
2023-02-24T19:53:35.431Z,100383.00
2023-02-24T19:56:03.978Z,100389.75
2023-02-24T19:58:39.214Z,100379.38
2023-02-24T20:01:16.824Z,100379.78
2023-02-24T20:03:53.709Z,100385.13
2023-02-24T20:06:31.662Z,100388.97
2023-02-24T20:09:04.747Z,100384.72
2023-02-24T20:11:45.905Z,100374.94
2023-02-24T20:14:15.299Z,100363.28
2023-02-24T20:16:46.035Z,100357.16
2023-02-24T20:19:32.437Z,100350.28
2023-02-24T20:22:27.996Z,100361.84
2023-02-24T20:25:00.555Z,100352.84
2023-02-24T20:27:52.632Z,100355.03
2023-02-24T20:30:26.358Z,100357.03
2023-02-24T20:32:56.677Z,100353.53
2023-02-24T20:35:26.881Z,100351.16
2023-02-24T20:37:57.711Z,100343.53
2023-02-24T20:40:26.880Z,100355.88
2023-02-24T20:43:26.268Z,100351.28
2023-02-24T20:45:56.371Z,100348.13
2023-02-24T20:48:32.944Z,100341.50
2023-02-24T20:51:21.810Z,100340.88
2023-02-24T20:57:20.576Z,100341.06
2023-02-24T21:00:02.997Z,100339.00
2023-02-24T21:02:39.461Z,100341.44
2023-02-24T21:05:58.866Z,100332.47
2023-02-24T21:11:05.275Z,100327.19
2023-02-24T21:13:31.992Z,100336.16
2023-02-24T21:15:58.687Z,100323.56
2023-02-24T21:18:25.505Z,100324.84
2023-02-24T21:20:54.138Z,100332.97
2023-02-24T21:26:13.190Z,100328.28
2023-02-24T21:28:47.154Z,100331.28
2023-02-24T21:31:24.377Z,100325.84
2023-02-24T21:33:52.387Z,100327.69
2023-02-24T21:36:26.439Z,100321.22
2023-02-24T21:39:00.740Z,100327.81
2023-02-24T21:41:27.712Z,100332.38
2023-02-24T21:44:18.368Z,100323.31
2023-02-24T21:47:13.365Z,100322.88
2023-02-24T21:49:49.888Z,100323.09
2023-02-24T21:55:01.317Z,100320.41
2023-02-24T21:57:28.536Z,100319.66
2023-02-24T22:00:20.907Z,100322.19
2023-02-24T22:02:54.695Z,100311.97
2023-02-24T22:05:39.715Z,100306.69
2023-02-24T22:08:26.747Z,100303.25
2023-02-24T22:11:06.846Z,100296.91
2023-02-24T22:13:33.642Z,100295.78
2023-02-24T22:16:21.586Z,100290.53
2023-02-24T22:19:29.712Z,100292.00
2023-02-24T22:22:21.266Z,100282.63
2023-02-24T22:25:08.066Z,100270.34
2023-02-24T22:28:04.945Z,100263.75
2023-02-24T22:30:44.043Z,100257.66
2023-02-24T22:33:18.961Z,100251.88
2023-02-24T22:35:55.172Z,100256.25
2023-02-24T22:38:39.442Z,100257.91
2023-02-24T22:41:29.694Z,100236.59
2023-02-24T22:44:10.955Z,100236.41
2023-02-24T22:46:47.089Z,100235.50
2023-02-24T22:49:37.971Z,100237.66
2023-02-24T22:52:24.774Z,100233.94
2023-02-24T22:55:03.395Z,100228.59
2023-02-24T22:57:45.289Z,100239.00
2023-02-24T23:00:38.292Z,100236.00
2023-02-24T23:06:17.913Z,100226.06
2023-02-24T23:09:00.504Z,100227.38
2023-02-24T23:11:34.350Z,100218.69
2023-02-24T23:14:10.322Z,100223.53
2023-02-24T23:16:59.849Z,100207.97
2023-02-24T23:19:38.808Z,100204.44
2023-02-24T23:22:23.213Z,100192.63
2023-02-24T23:25:05.843Z,100193.34
2023-02-24T23:28:01.763Z,100194.00
2023-02-24T23:31:05.165Z,100189.09
2023-02-24T23:33:39.790Z,100185.28
2023-02-24T23:36:20.854Z,100184.88
2023-02-24T23:39:12.103Z,100175.00
2023-02-24T23:42:23.056Z,100165.59
2023-02-24T23:45:08.705Z,100171.03
2023-02-24T23:50:57.951Z,100164.84
2023-02-24T23:53:59.656Z,100162.69
2023-02-24T23:56:40.705Z,100168.31
2023-02-24T23:59:08.005Z,100160.28
